Time;durP1;ratioP1;P1;durP2;ratioP2;P2;SDS_P1;SDS_P2;PMS_P1;PMS_P2;Temp;Humidity;BMP_temperature;BMP_pressure;BME280_temperature;BME280_humidity;BME280_pressure;Samples;Min_cycle;Max_cycle;Signal;HPM_P1;HPM_P2
2022/11/12 00:02:36;;;;;;;57.08;34.90;;;8.70;99.90;;;;;;5018538;28;20068;-77
2022/11/12 00:05:20;;;;;;;48.10;33.97;;;8.80;99.90;;;;;;5033648;28;20044;-76
2022/11/12 00:08:05;;;;;;;49.90;34.78;;;8.80;99.90;;;;;;5035499;28;20040;-78
2022/11/12 00:10:49;;;;;;;46.70;32.00;;;8.80;99.90;;;;;;5020323;28;20041;-76
2022/11/12 00:13:34;;;;;;;41.40;29.92;;;8.80;99.90;;;;;;5033415;28;20555;-76
2022/11/12 00:16:18;;;;;;;45.95;32.20;;;8.90;99.90;;;;;;5034238;28;20044;-76
2022/11/12 00:19:02;;;;;;;44.67;30.70;;;8.80;99.90;;;;;;5034328;28;20522;-75
2022/11/12 00:21:47;;;;;;;45.13;30.83;;;8.90;99.90;;;;;;5033523;28;20411;-77
2022/11/12 00:24:31;;;;;;;46.40;30.45;;;8.80;99.90;;;;;;5033005;28;20032;-75
2022/11/12 00:27:16;;;;;;;39.03;29.00;;;8.90;99.90;;;;;;5033798;28;20052;-78
2022/11/12 00:30:01;;;;;;;39.13;29.10;;;8.80;99.90;;;;;;5032577;28;20076;-76
2022/11/12 00:32:45;;;;;;;37.15;28.88;;;8.80;99.90;;;;;;5032714;28;20036;-78
2022/11/12 00:35:33;;;;;;;38.70;29.02;;;8.70;99.90;;;;;;5032395;28;20119;-77
2022/11/12 00:38:17;;;;;;;46.17;31.10;;;8.70;99.90;;;;;;5020948;28;20036;-76
2022/11/12 00:41:02;;;;;;;42.17;30.50;;;8.80;99.90;;;;;;5033385;28;20087;-77
2022/11/12 00:43:46;;;;;;;38.38;28.42;;;8.70;99.90;;;;;;5029760;28;20076;-77
2022/11/12 00:46:31;;;;;;;42.50;27.10;;;8.80;99.90;;;;;;5037508;28;20215;-77
2022/11/12 00:49:16;;;;;;;41.47;27.45;;;8.80;99.90;;;;;;5033188;28;20052;-75
2022/11/12 00:52:00;;;;;;;40.10;25.73;;;8.70;99.90;;;;;;5015882;28;20087;-75
2022/11/12 00:54:45;;;;;;;42.20;26.95;;;8.70;99.90;;;;;;5033936;28;20091;-74
2022/11/12 00:57:29;;;;;;;35.20;24.42;;;8.70;99.90;;;;;;5023976;28;20080;-74
2022/11/12 01:00:16;;;;;;;34.67;24.58;;;8.70;99.90;;;;;;5034771;28;20404;-74
2022/11/12 01:03:03;;;;;;;33.22;23.08;;;8.70;99.90;;;;;;5019450;28;20044;-74
2022/11/12 01:05:48;;;;;;;31.00;23.40;;;8.80;99.90;;;;;;5023456;28;20052;-75
2022/11/12 01:08:32;;;;;;;34.05;24.27;;;8.80;99.90;;;;;;5026660;28;20141;-77
2022/11/12 01:11:26;;;;;;;34.40;26.23;;;8.70;99.90;;;;;;5003901;28;20037;-75
2022/11/12 01:14:10;;;;;;;33.95;24.50;;;8.60;99.90;;;;;;5029189;28;20392;-76
2022/11/12 01:16:55;;;;;;;33.47;23.58;;;8.60;99.90;;;;;;5035152;28;20040;-75
2022/11/12 01:19:40;;;;;;;32.47;21.77;;;8.70;99.90;;;;;;5034926;28;20048;-75
2022/11/12 01:22:24;;;;;;;31.80;23.15;;;8.70;99.90;;;;;;5024923;28;20557;-75
2022/11/12 01:25:09;;;;;;;36.67;24.95;;;8.80;99.90;;;;;;5024224;28;20088;-75
2022/11/12 01:27:54;;;;;;;39.47;22.90;;;8.70;99.90;;;;;;5031461;28;20067;-75
2022/11/12 01:30:38;;;;;;;30.65;21.42;;;8.80;99.90;;;;;;5030914;28;20427;-75
2022/11/12 01:33:22;;;;;;;33.58;21.30;;;8.80;99.90;;;;;;5025651;28;20040;-75
2022/11/12 01:36:08;;;;;;;34.13;22.80;;;8.80;99.90;;;;;;5015698;28;20053;-75
2022/11/12 01:38:53;;;;;;;34.08;23.10;;;8.80;99.90;;;;;;5034404;28;20078;-76
2022/11/12 01:41:39;;;;;;;31.55;22.85;;;8.70;99.90;;;;;;5034125;28;20052;-75
2022/11/12 01:44:29;;;;;;;31.15;21.67;;;8.80;99.90;;;;;;5030337;28;20031;-75
2022/11/12 01:47:28;;;;;;;31.98;22.17;;;8.80;99.90;;;;;;5004905;28;20411;-75
2022/11/12 01:50:32;;;;;;;32.58;21.50;;;8.80;99.90;;;;;;5034201;28;20128;-75
2022/11/12 01:53:17;;;;;;;33.45;23.05;;;8.80;99.90;;;;;;5031254;28;20129;-75
2022/11/12 01:56:04;;;;;;;31.95;21.67;;;8.80;99.90;;;;;;5027750;28;20041;-75
2022/11/12 01:58:54;;;;;;;28.45;19.48;;;8.80;99.90;;;;;;5030656;28;20049;-75
2022/11/12 02:01:39;;;;;;;33.03;21.33;;;8.80;99.90;;;;;;5033257;28;20039;-75
2022/11/12 02:04:25;;;;;;;33.08;21.40;;;8.90;99.90;;;;;;5021022;28;20047;-74
2022/11/12 02:07:10;;;;;;;32.80;21.55;;;8.90;99.90;;;;;;5022211;28;20061;-75
2022/11/12 02:09:55;;;;;;;31.80;21.00;;;8.90;99.90;;;;;;5015249;28;20044;-77
2022/11/12 02:15:43;;;;;;;35.25;23.02;;;8.90;99.90;;;;;;5028234;28;20479;-76
2022/11/12 02:18:28;;;;;;;34.83;22.95;;;9.00;99.90;;;;;;5022658;28;20097;-75
2022/11/12 02:21:12;;;;;;;32.97;22.73;;;9.00;99.90;;;;;;5023346;28;20036;-76
2022/11/12 02:24:05;;;;;;;38.80;23.63;;;9.00;99.90;;;;;;5023150;28;20108;-75
2022/11/12 02:26:53;;;;;;;34.17;22.77;;;9.00;99.90;;;;;;5019631;28;20061;-75
2022/11/12 02:29:45;;;;;;;34.13;22.02;;;9.00;99.90;;;;;;5026584;28;20060;-75
2022/11/12 02:32:29;;;;;;;33.55;22.45;;;9.00;99.90;;;;;;5024575;28;20450;-75
2022/11/12 02:35:14;;;;;;;33.50;22.00;;;9.00;99.90;;;;;;5017878;28;20053;-75
2022/11/12 02:37:58;;;;;;;34.63;23.98;;;8.90;99.90;;;;;;5028168;28;20048;-75
2022/11/12 02:40:42;;;;;;;31.83;20.85;;;8.90;99.90;;;;;;5025100;28;20072;-75
2022/11/12 02:43:26;;;;;;;29.52;21.02;;;9.00;99.90;;;;;;5025017;28;20051;-75
2022/11/12 02:46:11;;;;;;;39.20;21.92;;;9.00;99.90;;;;;;5016000;28;20120;-75
2022/11/12 02:48:56;;;;;;;31.92;20.88;;;8.90;99.90;;;;;;5015683;28;20071;-75
2022/11/12 02:51:40;;;;;;;36.22;22.73;;;9.00;99.90;;;;;;5033729;28;20079;-75
2022/11/12 02:54:24;;;;;;;35.05;21.40;;;9.00;99.90;;;;;;5033872;28;20087;-75
2022/11/12 02:57:09;;;;;;;31.95;21.83;;;8.90;99.90;;;;;;5033735;28;20091;-76
2022/11/12 02:59:54;;;;;;;32.13;20.85;;;8.90;99.90;;;;;;5033382;28;20048;-76
2022/11/12 03:02:41;;;;;;;38.95;23.83;;;8.90;99.90;;;;;;5029393;28;20098;-75
2022/11/12 03:05:31;;;;;;;34.60;23.73;;;8.90;99.90;;;;;;5028417;28;20123;-75
2022/11/12 03:08:16;;;;;;;31.67;21.45;;;8.90;99.90;;;;;;5023790;28;20412;-75
2022/11/12 03:11:09;;;;;;;39.03;22.55;;;8.90;99.90;;;;;;5026456;28;20033;-75
2022/11/12 03:13:54;;;;;;;35.58;22.70;;;8.90;99.90;;;;;;5033171;28;20056;-76
2022/11/12 03:16:38;;;;;;;35.20;21.45;;;8.90;99.90;;;;;;5033448;28;20068;-77
2022/11/12 03:19:22;;;;;;;32.88;21.83;;;8.90;99.90;;;;;;5032930;28;20043;-76
2022/11/12 03:22:06;;;;;;;31.92;19.75;;;8.80;99.90;;;;;;5032735;28;20099;-75
2022/11/12 03:24:51;;;;;;;33.08;20.58;;;8.80;99.90;;;;;;5022792;28;20048;-75
2022/11/12 03:27:35;;;;;;;29.80;19.67;;;8.90;99.90;;;;;;5019285;28;20079;-76
2022/11/12 03:30:21;;;;;;;34.83;21.77;;;8.90;99.90;;;;;;5032768;28;20088;-75
2022/11/12 03:33:07;;;;;;;29.75;20.20;;;8.90;99.90;;;;;;5033036;28;20087;-74
2022/11/12 03:35:52;;;;;;;29.23;18.45;;;8.90;99.90;;;;;;5024675;28;20041;-75
2022/11/12 03:38:36;;;;;;;31.90;19.95;;;8.90;99.90;;;;;;5032195;28;20056;-77
2022/11/12 03:41:20;;;;;;;31.83;20.85;;;8.90;99.90;;;;;;5032648;28;20041;-75
2022/11/12 03:44:05;;;;;;;30.02;19.55;;;9.00;99.90;;;;;;5032592;28;20087;-75
2022/11/12 03:46:49;;;;;;;26.35;18.73;;;9.00;99.90;;;;;;5027635;28;20075;-76
2022/11/12 03:49:34;;;;;;;29.10;19.67;;;9.00;99.90;;;;;;5032168;28;20052;-76
2022/11/12 03:52:18;;;;;;;28.00;21.00;;;9.00;99.90;;;;;;5032605;28;20435;-75
2022/11/12 03:55:04;;;;;;;30.70;20.00;;;9.00;99.90;;;;;;5032397;28;20099;-75
2022/11/12 03:57:49;;;;;;;29.33;19.17;;;9.10;99.90;;;;;;5029971;28;20095;-75
2022/11/12 04:00:34;;;;;;;30.05;18.35;;;9.10;99.90;;;;;;5032417;28;20040;-75
2022/11/12 04:03:18;;;;;;;26.67;19.55;;;9.10;99.90;;;;;;5032436;28;20036;-75
2022/11/12 04:09:09;;;;;;;29.60;18.80;;;9.10;99.90;;;;;;5031463;28;20044;-76
2022/11/12 04:11:53;;;;;;;33.75;18.98;;;9.10;99.90;;;;;;5032118;28;20092;-75
2022/11/12 04:14:37;;;;;;;29.83;18.40;;;9.10;99.90;;;;;;5032243;28;20037;-77
2022/11/12 04:23:28;;;;;;;32.88;19.10;;;9.00;99.90;;;;;;5018749;28;20060;-76
2022/11/12 04:26:22;;;;;;;29.42;19.00;;;9.00;99.90;;;;;;5030382;28;20079;-75
2022/11/12 04:32:09;;;;;;;30.45;18.77;;;9.10;99.90;;;;;;5031867;28;20041;-75
2022/11/12 04:34:54;;;;;;;30.05;18.60;;;9.10;99.90;;;;;;5029910;28;20040;-75
2022/11/12 04:37:44;;;;;;;30.15;19.67;;;9.20;99.90;;;;;;5017993;28;20578;-75
2022/11/12 04:46:36;;;;;;;37.28;21.52;;;9.20;99.90;;;;;;5031840;28;20445;-74
2022/11/12 04:49:21;;;;;;;30.38;18.77;;;9.20;99.90;;;;;;5031825;28;20148;-74
2022/11/12 04:52:05;;;;;;;27.83;18.15;;;9.10;99.90;;;;;;5031792;28;20041;-75
2022/11/12 04:54:51;;;;;;;28.92;18.70;;;9.00;99.90;;;;;;5031443;28;20146;-75
2022/11/12 04:57:36;;;;;;;29.80;19.52;;;9.00;99.90;;;;;;5031526;28;20141;-76
2022/11/12 05:00:20;;;;;;;30.20;19.55;;;9.10;99.90;;;;;;5031806;28;20041;-75
2022/11/12 05:03:04;;;;;;;35.25;20.92;;;9.10;99.90;;;;;;5031530;28;20082;-75
2022/11/12 05:05:49;;;;;;;32.30;19.88;;;9.10;99.90;;;;;;5030967;28;20095;-75
2022/11/12 05:08:33;;;;;;;34.90;20.02;;;9.10;99.90;;;;;;5030204;28;20056;-76
2022/11/12 05:11:18;;;;;;;30.70;19.50;;;9.20;99.90;;;;;;5031591;28;20103;-75
2022/11/12 05:14:02;;;;;;;28.63;19.60;;;9.20;99.90;;;;;;5024717;28;20040;-76
2022/11/12 05:16:47;;;;;;;28.38;17.08;;;9.30;99.90;;;;;;5028557;28;20506;-76
2022/11/12 05:19:33;;;;;;;31.00;18.17;;;9.40;99.90;;;;;;5022762;28;20438;-75
2022/11/12 05:22:17;;;;;;;27.65;16.88;;;9.40;99.90;;;;;;5030296;28;20083;-76
2022/11/12 05:25:02;;;;;;;27.33;16.52;;;9.40;99.90;;;;;;5029579;28;20088;-76
2022/11/12 05:27:46;;;;;;;31.13;18.90;;;9.50;99.90;;;;;;5030492;28;20554;-77
2022/11/12 05:30:31;;;;;;;30.70;18.98;;;9.50;99.90;;;;;;5028327;28;20092;-76
2022/11/12 05:33:15;;;;;;;28.23;18.98;;;9.50;99.90;;;;;;5029759;28;20132;-76
2022/11/12 05:36:00;;;;;;;32.00;22.13;;;9.40;99.90;;;;;;5007820;28;20064;-76
2022/11/12 05:38:44;;;;;;;33.42;21.45;;;9.50;99.90;;;;;;5034070;28;20053;-76
2022/11/12 05:41:29;;;;;;;42.30;26.45;;;9.50;99.90;;;;;;5035336;28;20079;-76
2022/11/12 05:44:13;;;;;;;41.92;27.73;;;9.40;99.90;;;;;;5033849;28;20052;-76
2022/11/12 05:46:58;;;;;;;36.95;25.52;;;9.50;99.90;;;;;;5024085;28;20041;-75
2022/11/12 05:49:43;;;;;;;36.03;25.48;;;9.50;99.90;;;;;;5025246;28;20476;-77
2022/11/12 05:52:27;;;;;;;32.55;21.42;;;9.40;99.90;;;;;;5020620;28;20087;-76
2022/11/12 05:55:11;;;;;;;31.05;20.10;;;9.40;99.90;;;;;;5022334;28;20388;-75
2022/11/12 05:57:56;;;;;;;39.85;24.98;;;9.40;99.90;;;;;;5023808;28;20128;-76
2022/11/12 06:00:40;;;;;;;34.70;24.60;;;9.40;99.90;;;;;;5022416;28;20037;-77
2022/11/12 06:03:25;;;;;;;50.03;33.70;;;9.40;99.90;;;;;;5026188;28;20060;-76
2022/11/12 06:06:10;;;;;;;52.67;32.38;;;9.30;99.90;;;;;;5021674;28;20610;-76
2022/11/12 06:08:55;;;;;;;49.90;32.83;;;9.30;99.90;;;;;;5034037;28;20526;-76
2022/11/12 06:11:39;;;;;;;53.58;34.95;;;9.40;99.90;;;;;;5034081;28;20464;-76
2022/11/12 06:14:24;;;;;;;59.83;39.97;;;9.40;99.90;;;;;;5033233;28;20036;-76
2022/11/12 06:17:08;;;;;;;59.30;39.35;;;9.50;99.90;;;;;;5021952;28;20037;-77
2022/11/12 06:19:53;;;;;;;59.08;40.88;;;9.60;99.90;;;;;;5021922;28;20044;-75
2022/11/12 06:22:37;;;;;;;62.08;42.85;;;9.70;99.90;;;;;;5023127;28;20084;-77
2022/11/12 06:25:22;;;;;;;63.08;40.33;;;9.80;99.90;;;;;;5034146;28;20044;-77
2022/11/12 06:28:07;;;;;;;58.35;37.92;;;9.90;99.90;;;;;;5017607;28;20044;-76
2022/11/12 06:30:51;;;;;;;59.38;37.05;;;10.00;99.90;;;;;;5028185;28;20044;-76
2022/11/12 06:33:35;;;;;;;55.67;39.10;;;9.90;99.90;;;;;;5030552;28;20033;-76
2022/11/12 06:36:20;;;;;;;56.85;37.17;;;9.90;99.90;;;;;;5021211;28;20048;-77
2022/11/12 06:39:05;;;;;;;52.75;36.67;;;10.00;99.90;;;;;;5033615;28;20053;-77
2022/11/12 06:41:49;;;;;;;51.97;32.08;;;10.10;99.90;;;;;;5033677;28;20087;-77
2022/11/12 06:44:34;;;;;;;56.55;29.55;;;10.20;99.90;;;;;;5033657;28;20429;-76
2022/11/12 06:47:18;;;;;;;40.95;25.67;;;10.20;99.90;;;;;;5033653;28;20064;-76
2022/11/12 06:50:03;;;;;;;39.20;25.73;;;10.30;99.90;;;;;;5030440;28;20051;-76
2022/11/12 06:52:48;;;;;;;37.22;26.23;;;10.40;99.90;;;;;;5030153;28;20554;-76
2022/11/12 06:55:32;;;;;;;40.35;25.35;;;10.40;99.90;;;;;;5032258;28;20499;-76
2022/11/12 06:58:17;;;;;;;38.88;26.45;;;10.40;99.90;;;;;;5025154;28;20100;-75
2022/11/12 07:01:15;;;;;;;39.92;28.27;;;10.30;99.90;;;;;;5032161;28;20040;-76
2022/11/12 07:03:59;;;;;;;47.25;28.13;;;10.20;99.90;;;;;;5032502;28;20449;-76
2022/11/12 07:06:44;;;;;;;44.70;27.08;;;10.20;99.90;;;;;;5023267;28;20057;-76
2022/11/12 07:09:28;;;;;;;40.45;26.10;;;10.30;99.90;;;;;;5011595;28;20056;-76
2022/11/12 07:12:13;;;;;;;37.50;25.20;;;10.30;99.90;;;;;;5008757;28;20041;-76
2022/11/12 07:14:57;;;;;;;36.63;22.65;;;10.40;99.90;;;;;;5029088;28;20564;-75
2022/11/12 07:17:45;;;;;;;36.85;23.30;;;10.50;99.90;;;;;;5026470;28;20100;-76
2022/11/12 07:20:29;;;;;;;34.90;23.27;;;10.50;99.90;;;;;;5022082;28;20092;-75
2022/11/12 07:23:14;;;;;;;37.35;22.13;;;10.60;99.90;;;;;;5020484;28;20558;-75
2022/11/12 07:26:04;;;;;;;47.35;27.77;;;10.70;99.90;;;;;;5032324;28;20076;-76
2022/11/12 07:28:50;;;;;;;42.53;28.42;;;10.80;99.90;;;;;;5017487;28;20126;-76
2022/11/12 07:31:35;;;;;;;37.50;27.55;;;11.00;99.90;;;;;;5023311;28;20037;-77
2022/11/12 07:34:19;;;;;;;47.25;31.67;;;11.10;99.90;;;;;;5031868;28;20544;-76
2022/11/12 07:37:04;;;;;;;47.05;30.88;;;11.20;99.90;;;;;;5018367;28;20090;-75
2022/11/12 07:39:48;;;;;;;38.75;26.70;;;11.40;99.90;;;;;;5031750;28;20041;-79
2022/11/12 07:42:33;;;;;;;38.67;23.77;;;11.50;99.90;;;;;;5022988;28;20044;-73
2022/11/12 07:45:18;;;;;;;35.30;22.73;;;11.40;99.90;;;;;;5024976;28;20056;-80
2022/11/12 07:48:02;;;;;;;37.75;22.77;;;11.50;99.90;;;;;;5027312;28;20044;-79
2022/11/12 07:50:47;;;;;;;31.25;22.52;;;11.60;99.90;;;;;;5030360;28;20135;-75
2022/11/12 07:53:31;;;;;;;35.83;23.17;;;11.60;99.90;;;;;;5028679;28;20064;-74
2022/11/12 07:56:19;;;;;;;41.30;24.08;;;11.50;99.90;;;;;;5030506;28;20072;-78
2022/11/12 07:59:04;;;;;;;33.22;22.27;;;11.70;99.90;;;;;;5030146;28;20036;-75
2022/11/12 08:01:48;;;;;;;28.85;18.40;;;11.80;99.90;;;;;;5015032;28;20039;-75
2022/11/12 08:04:32;;;;;;;28.63;19.65;;;11.90;99.90;;;;;;5025642;28;20036;-74
2022/11/12 08:07:17;;;;;;;27.92;18.08;;;12.00;99.90;;;;;;5025583;28;20064;-77
2022/11/12 08:10:02;;;;;;;29.88;19.08;;;12.30;99.90;;;;;;5026921;28;20052;-78
2022/11/12 08:12:46;;;;;;;29.88;19.17;;;12.60;99.90;;;;;;5025937;28;20095;-76
2022/11/12 08:15:31;;;;;;;28.15;19.88;;;12.50;99.90;;;;;;5005525;28;20529;-76
2022/11/12 08:18:16;;;;;;;29.60;19.42;;;12.70;99.90;;;;;;5025352;28;20125;-76
2022/11/12 08:21:03;;;;;;;20.42;13.98;;;12.90;99.90;;;;;;5030869;28;20048;-76
2022/11/12 08:23:47;;;;;;;23.35;13.63;;;12.80;99.90;;;;;;5028850;28;20045;-75
2022/11/12 08:26:32;;;;;;;22.10;13.52;;;12.80;99.90;;;;;;5029663;28;20078;-77
2022/11/12 08:29:16;;;;;;;23.05;15.07;;;12.80;99.90;;;;;;5031098;28;20125;-73
2022/11/12 08:32:01;;;;;;;23.98;15.25;;;12.60;99.90;;;;;;5030768;28;20124;-74
2022/11/12 08:34:47;;;;;;;25.15;15.80;;;12.70;99.90;;;;;;5027149;28;20442;-76
2022/11/12 08:37:31;;;;;;;21.83;14.45;;;12.60;99.90;;;;;;5027838;28;20048;-75
2022/11/12 08:40:16;;;;;;;21.38;13.40;;;12.60;99.90;;;;;;5017574;28;20037;-74
2022/11/12 08:43:03;;;;;;;21.70;14.45;;;12.60;99.90;;;;;;5029741;28;20056;-80
2022/11/12 08:45:48;;;;;;;20.23;14.20;;;12.50;99.90;;;;;;5029497;28;20037;-75
2022/11/12 08:48:33;;;;;;;26.00;16.27;;;12.60;99.90;;;;;;5026396;28;20461;-74
2022/11/12 08:51:17;;;;;;;23.40;14.88;;;12.70;99.90;;;;;;5017739;28;20445;-75
2022/11/12 08:54:02;;;;;;;29.25;15.40;;;12.90;99.90;;;;;;5028077;28;20036;-76
2022/11/12 08:56:46;;;;;;;23.83;15.60;;;12.90;99.90;;;;;;5030162;28;20095;-77
2022/11/12 08:59:31;;;;;;;22.50;14.13;;;13.00;99.90;;;;;;5030970;28;20064;-78
2022/11/12 09:02:16;;;;;;;25.52;13.90;;;13.00;99.90;;;;;;5027621;28;20040;-74
2022/11/12 09:05:00;;;;;;;23.45;14.52;;;13.00;99.90;;;;;;5029910;28;20447;-79
2022/11/12 09:07:45;;;;;;;25.95;15.48;;;13.10;99.90;;;;;;5031949;28;20569;-74
2022/11/12 09:10:30;;;;;;;25.75;15.52;;;13.10;99.90;;;;;;5028645;28;20396;-76
2022/11/12 09:13:16;;;;;;;24.70;15.57;;;13.00;99.90;;;;;;5034917;28;20088;-75
2022/11/12 09:16:03;;;;;;;28.25;16.63;;;13.20;99.90;;;;;;5031863;28;20081;-75
2022/11/12 09:18:47;;;;;;;28.48;16.95;;;13.10;99.90;;;;;;5031438;28;20063;-75
2022/11/12 09:21:31;;;;;;;21.17;13.88;;;13.40;99.90;;;;;;5034118;28;20179;-75
2022/11/12 09:24:16;;;;;;;20.17;13.05;;;13.30;99.90;;;;;;5034093;28;20128;-75
2022/11/12 09:27:00;;;;;;;27.27;14.35;;;13.20;99.90;;;;;;5031951;28;20133;-78
2022/11/12 09:29:45;;;;;;;21.00;12.75;;;13.30;99.90;;;;;;5031020;28;20067;-75
2022/11/12 09:32:29;;;;;;;22.58;13.75;;;13.40;99.90;;;;;;5033507;28;20547;-75
2022/11/12 09:35:15;;;;;;;19.20;12.38;;;13.40;99.90;;;;;;5031135;28;20179;-75
2022/11/12 09:37:59;;;;;;;18.88;12.05;;;13.50;99.90;;;;;;5026115;28;20588;-75
2022/11/12 09:40:43;;;;;;;19.52;12.98;;;13.70;99.90;;;;;;5032224;28;20044;-74
2022/11/12 09:43:38;;;;;;;21.30;12.48;;;13.70;99.90;;;;;;5028233;28;20076;-75
2022/11/12 09:46:33;;;;;;;21.52;13.20;;;13.70;99.90;;;;;;5027071;28;20095;-74
2022/11/12 09:49:39;;;;;;;21.33;13.27;;;13.70;99.90;;;;;;5026098;28;20527;-76
2022/11/12 09:52:29;;;;;;;20.55;13.30;;;13.70;99.90;;;;;;5026145;28;20117;-75
2022/11/12 09:55:35;;;;;;;24.00;13.27;;;13.70;99.90;;;;;;5034112;28;20036;-75
2022/11/12 09:58:19;;;;;;;18.33;11.63;;;13.80;99.90;;;;;;5020748;28;20068;-75
2022/11/12 10:01:15;;;;;;;27.20;13.15;;;13.80;99.90;;;;;;5029800;28;20108;-76
2022/11/12 10:04:09;;;;;;;21.98;13.38;;;14.10;99.90;;;;;;5030612;28;20048;-79
2022/11/12 10:07:00;;;;;;;25.83;14.30;;;14.20;99.90;;;;;;5030357;28;20048;-77
2022/11/12 10:10:23;;;;;;;21.20;14.02;;;14.20;99.90;;;;;;5029126;28;20137;-74
2022/11/12 10:13:42;;;;;;;26.40;14.20;;;14.00;99.90;;;;;;5029790;28;20515;-73
2022/11/12 10:16:47;;;;;;;24.52;14.43;;;14.00;99.90;;;;;;4962058;28;20094;-75
2022/11/12 10:19:58;;;;;;;23.95;13.77;;;14.10;99.90;;;;;;4975327;28;20037;-75
2022/11/12 10:23:23;;;;;;;23.25;12.57;;;14.30;99.90;;;;;;4970031;28;20154;-74
2022/11/12 10:26:14;;;;;;;19.85;12.25;;;14.20;99.90;;;;;;4981784;28;20078;-78
2022/11/12 10:29:13;;;;;;;19.10;12.50;;;14.10;99.90;;;;;;4975990;28;20108;-76
2022/11/12 10:32:01;;;;;;;22.88;13.27;;;14.00;99.90;;;;;;4977889;28;20097;-76
2022/11/12 10:34:45;;;;;;;18.88;11.73;;;13.90;99.90;;;;;;4979242;28;20796;-75
2022/11/12 10:37:44;;;;;;;21.65;13.18;;;14.00;99.90;;;;;;4963337;28;20138;-77
2022/11/12 10:40:34;;;;;;;21.63;12.98;;;14.10;99.90;;;;;;4971803;28;20077;-76
2022/11/12 10:43:23;;;;;;;21.23;12.25;;;14.30;99.90;;;;;;4981670;28;20404;-75
2022/11/12 10:46:20;;;;;;;21.75;13.85;;;14.50;99.90;;;;;;4974561;28;20103;-79
2022/11/12 10:49:22;;;;;;;21.73;13.23;;;14.70;99.90;;;;;;4988324;28;20052;-74
2022/11/12 10:52:21;;;;;;;20.40;13.05;;;14.80;99.90;;;;;;4992871;28;20587;-78
2022/11/12 10:55:14;;;;;;;20.23;12.98;;;14.80;99.90;;;;;;5023205;28;20043;-78
2022/11/12 10:58:10;;;;;;;29.65;12.85;;;14.90;99.90;;;;;;5031399;28;20040;-77
2022/11/12 11:01:02;;;;;;;24.20;14.68;;;15.00;99.90;;;;;;5030722;28;20458;-74
2022/11/12 11:03:53;;;;;;;25.90;16.65;;;15.20;99.90;;;;;;5026677;28;20064;-75
2022/11/12 11:06:38;;;;;;;26.05;14.18;;;15.40;99.90;;;;;;5029552;28;20048;-75
2022/11/12 11:09:27;;;;;;;25.95;15.43;;;15.30;99.90;;;;;;5031465;28;20053;-77
2022/11/12 11:12:23;;;;;;;22.83;14.55;;;15.40;99.90;;;;;;5023339;28;20099;-79
2022/11/12 11:15:22;;;;;;;25.92;14.10;;;15.50;99.90;;;;;;5021870;28;20111;-74
2022/11/12 11:18:11;;;;;;;20.65;14.13;;;15.40;99.90;;;;;;5027664;28;20045;-79
2022/11/12 11:21:05;;;;;;;27.58;16.70;;;15.50;99.90;;;;;;5027552;28;20087;-74
2022/11/12 11:24:18;;;;;;;21.27;14.98;;;15.30;99.90;;;;;;5029318;28;20148;-78
2022/11/12 11:27:09;;;;;;;21.00;14.77;;;15.30;99.90;;;;;;4931066;29;20529;-75
2022/11/12 11:30:09;;;;;;;22.02;14.55;;;15.40;99.90;;;;;;4926917;29;20074;-78
2022/11/12 11:33:22;;;;;;;22.23;14.55;;;15.30;99.90;;;;;;4930864;29;20094;-79
2022/11/12 11:36:25;;;;;;;;;;;15.30;99.90;;;;;;4915208;29;20055;-76
2022/11/12 11:39:17;;;;;;;23.20;15.57;;;15.40;99.90;;;;;;4930258;29;19925;-73
2022/11/12 11:42:39;;;;;;;27.50;15.60;;;15.50;99.90;;;;;;4928968;29;20105;-73
2022/11/12 11:46:06;;;;;;;23.67;15.77;;;15.40;99.90;;;;;;4909298;29;20186;-74
2022/11/12 11:48:59;;;;;;;24.58;15.40;;;15.40;99.90;;;;;;4931977;29;20071;-73
2022/11/12 11:52:06;;;;;;;;;;;15.30;99.90;;;;;;4930632;29;20035;-73
2022/11/12 11:55:27;;;;;;;22.88;15.18;;;15.40;99.90;;;;;;4922983;29;19925;-74
2022/11/12 11:58:43;;;;;;;21.88;14.93;;;15.40;99.90;;;;;;4928128;29;20179;-77
2022/11/12 12:02:04;;;;;;;22.45;14.60;;;15.50;99.90;;;;;;4930574;29;20078;-75
2022/11/12 12:04:58;;;;;;;24.20;15.15;;;15.60;99.90;;;;;;5027186;28;20099;-75
2022/11/12 12:08:01;;;;;;;24.13;14.25;;;15.30;99.90;;;;;;5019138;28;20057;-75
2022/11/12 12:11:18;;;;;;;21.08;13.48;;;15.30;99.90;;;;;;5020691;28;20040;-75
2022/11/12 12:14:24;;;;;;;19.88;13.75;;;15.30;99.90;;;;;;5018879;28;20048;-77
2022/11/12 12:17:18;;;;;;;19.35;12.95;;;15.20;99.90;;;;;;5029784;28;20551;-75
2022/11/12 12:20:16;;;;;;;20.45;12.80;;;15.30;99.90;;;;;;5025729;28;20060;-75
2022/11/12 12:23:19;;;;;;;24.02;13.80;;;15.20;99.90;;;;;;5027180;28;20099;-78
2022/11/12 12:26:24;;;;;;;23.98;13.10;;;15.20;99.90;;;;;;5023809;28;20095;-75
2022/11/12 12:29:30;;;;;;;21.50;14.00;;;14.90;99.90;;;;;;5019217;28;20513;-74
2022/11/12 12:32:20;;;;;;;21.02;12.60;;;14.80;99.90;;;;;;5024066;28;20052;-74
2022/11/12 12:35:34;;;;;;;23.33;13.63;;;15.10;99.90;;;;;;5012534;28;20037;-79
2022/11/12 12:38:27;;;;;;;20.45;12.77;;;15.20;99.90;;;;;;5026103;28;20044;-78
2022/11/12 12:41:28;;;;;;;18.20;10.57;;;15.20;99.90;;;;;;5024818;28;20404;-75
2022/11/12 12:44:12;;;;;;;17.98;12.18;;;15.20;99.90;;;;;;5027936;28;20266;-74
2022/11/12 12:46:59;;;;;;;18.42;11.05;;;15.20;99.90;;;;;;5025273;28;20033;-78
2022/11/12 12:49:46;;;;;;;23.70;11.93;;;15.30;99.90;;;;;;5028246;28;20056;-75
2022/11/12 12:53:14;;;;;;;17.50;10.38;;;15.30;99.90;;;;;;5030299;28;20045;-80
2022/11/12 12:56:01;;;;;;;19.52;11.18;;;15.20;99.90;;;;;;5024514;28;20028;-77
2022/11/12 12:58:47;;;;;;;22.10;13.00;;;15.10;99.90;;;;;;5020688;28;20126;-74
2022/11/12 13:01:34;;;;;;;22.02;12.98;;;15.20;99.90;;;;;;5021533;28;20057;-78
2022/11/12 13:04:49;;;;;;;20.85;11.52;;;15.30;99.90;;;;;;5023644;28;20040;-75
2022/11/12 13:07:44;;;;;;;22.65;13.02;;;15.20;99.90;;;;;;4999931;28;20081;-75
2022/11/12 13:10:38;;;;;;;19.73;11.00;;;15.20;99.90;;;;;;5023776;28;20048;-75
2022/11/12 13:13:32;;;;;;;18.50;12.07;;;15.10;99.90;;;;;;5027192;28;20117;-75
2022/11/12 13:16:49;;;;;;;19.73;12.27;;;15.10;99.90;;;;;;5035177;28;20040;-75
2022/11/12 13:19:52;;;;;;;16.30;9.70;;;15.00;99.90;;;;;;5023970;28;20033;-75
2022/11/12 13:22:37;;;;;;;17.65;9.27;;;15.00;99.90;;;;;;5027351;28;20124;-74
2022/11/12 13:25:26;;;;;;;18.92;10.15;;;15.10;99.90;;;;;;5022184;28;20041;-75
2022/11/12 13:28:11;;;;;;;17.25;10.77;;;15.10;99.90;;;;;;5020454;28;20048;-77
2022/11/12 13:30:56;;;;;;;15.05;9.85;;;15.10;99.90;;;;;;5026033;28;20120;-75
2022/11/12 13:33:41;;;;;;;13.13;8.35;;;15.00;99.90;;;;;;5022521;28;20562;-74
2022/11/12 13:36:29;;;;;;;16.38;10.20;;;15.00;99.90;;;;;;5023459;28;20044;-76
2022/11/12 13:39:18;;;;;;;24.60;14.15;;;15.00;99.90;;;;;;5029823;28;20479;-78
2022/11/12 13:45:23;;;;;;;22.45;13.63;;;14.80;99.90;;;;;;5024148;28;20041;-75
2022/11/12 13:48:19;;;;;;;19.73;11.57;;;14.70;99.90;;;;;;5019227;28;20044;-73
2022/11/12 13:51:15;;;;;;;23.83;12.15;;;14.70;99.90;;;;;;5029301;28;20115;-73
2022/11/12 13:54:19;;;;;;;32.20;21.85;;;14.60;99.90;;;;;;5028812;28;20059;-73
2022/11/12 13:57:23;;;;;;;27.85;21.17;;;14.50;99.90;;;;;;5027423;28;20092;-73
2022/11/12 14:00:17;;;;;;;25.98;16.80;;;14.30;99.90;;;;;;5028552;28;20152;-72
2022/11/12 14:03:06;;;;;;;27.08;16.33;;;14.20;99.90;;;;;;5029284;28;20047;-77
2022/11/12 14:05:50;;;;;;;49.10;33.33;;;14.20;99.90;;;;;;5024318;28;20071;-73
2022/11/12 14:08:54;;;;;;;27.63;17.73;;;14.10;99.90;;;;;;5016479;28;20494;-77
2022/11/12 14:12:06;;;;;;;38.67;24.27;;;14.00;99.90;;;;;;5030490;28;20055;-76
2022/11/12 14:15:21;;;;;;;24.67;17.67;;;14.00;99.90;;;;;;5032805;28;20032;-78
2022/11/12 14:18:37;;;;;;;29.02;18.83;;;14.00;99.90;;;;;;5022071;28;20084;-73
2022/11/12 14:21:21;;;;;;;29.55;19.70;;;13.90;99.90;;;;;;5016240;28;20048;-79
2022/11/12 14:24:11;;;;;;;29.40;19.23;;;13.90;99.90;;;;;;5032166;28;20676;-73
2022/11/12 14:26:55;;;;;;;27.80;18.75;;;13.80;99.90;;;;;;5031362;28;20840;-74
2022/11/12 14:29:40;;;;;;;67.18;41.92;;;13.70;99.90;;;;;;5030375;28;20457;-74
2022/11/12 14:32:24;;;;;;;37.00;25.02;;;13.70;99.90;;;;;;5031700;28;20087;-72
2022/11/12 14:35:24;;;;;;;35.17;20.80;;;13.60;99.90;;;;;;5029161;28;20088;-74
2022/11/12 14:38:08;;;;;;;34.67;21.83;;;13.60;99.90;;;;;;5027811;28;20094;-74
2022/11/12 14:41:00;;;;;;;37.67;20.85;;;13.60;99.90;;;;;;5032029;28;20037;-73
2022/11/12 14:44:00;;;;;;;38.92;26.42;;;13.60;99.90;;;;;;5032467;28;20125;-72
2022/11/12 14:46:47;;;;;;;35.58;23.58;;;13.50;99.90;;;;;;5024134;28;20459;-73
2022/11/12 14:49:34;;;;;;;35.53;24.85;;;13.50;99.90;;;;;;5031908;28;20184;-73
2022/11/12 14:52:31;;;;;;;42.70;29.17;;;13.50;99.90;;;;;;5032856;28;20090;-74